Lynn Marie — WDB6192 — position and weather

sailwx.info

Track history (hours):
 
Tides and Currents Weather Stations Pressure Air Temp Water Temp Dewpoint Dewpoint Depression Visibility Wind Speed Wind Dir Waves Ship Positions

Lynn Marie

Owner: Foss Maritime Co, Seattle, WA. More information available from US FCC via Universal Licensing System and Coast Guard Vessel Documentation Center.

Last reported at 2018-Jan-31 20:58 UTC. Time now 2018-Feb-18 08:36 UTC.
Position N 48°31' W 122°37'.
Warning: this ship's position is 17 days out of date.

Length 30 m; draft 18 m.

Type: Tug. MMSI: 366919770.

Date/timePositionNaut miles runAvg speedWind from/ knotsBaromVisibWave heightAir tempDewpointWater temp
2018-Jan-31 20:58N 48°31' W 122°37'0 0.0
2018-Jan-31 20:30N 48°31' W 122°37'0 0.0
2018-Jan-31 20:01N 48°31' W 122°37'0 0.0
2018-Jan-31 19:31N 48°31' W 122°37'0 0.0
2018-Jan-31 19:01N 48°31' W 122°37'0 0.0
2018-Jan-31 18:30N 48°31' W 122°37'0 0.0
2018-Jan-31 18:01N 48°31' W 122°37'0 0.0
2018-Jan-31 17:31N 48°31' W 122°37'0 0.0
2018-Jan-31 17:01N 48°31' W 122°37'0 0.0
2018-Jan-31 16:31N 48°31' W 122°37'0 0.0
2018-Jan-31 16:01N 48°31' W 122°37'0 0.0
2018-Jan-31 15:30N 48°31' W 122°37'0 0.0
2018-Jan-31 15:01N 48°31' W 122°37'0 0.0
2018-Jan-31 14:31N 48°31' W 122°37'0 0.0
2018-Jan-31 13:00N 48°31' W 122°37'0 0.0
2018-Jan-31 12:31N 48°31' W 122°37'3 5.5
2018-Jan-31 12:00N 48°31' W 122°41'4 7.1
2018-Jan-31 11:31N 48°29' W 122°44'4 8.9
2018-Jan-31 11:00N 48°25' W 122°48'4 7.3
2018-Jan-31 10:30N 48°22' W 122°52'4 7.0
2018-Jan-31 09:59N 48°20' W 122°56'3 7.2
2018-Jan-31 09:30N 48°18' W 123°01'4 6.9
2018-Jan-31 09:00N 48°16' W 123°05'3 6.8
2018-Jan-31 08:30N 48°14' W 123°09'3 6.7
2018-Jan-31 08:00N 48°13' W 123°14'3 6.4
2018-Jan-31 07:30N 48°11' W 123°17'3 6.5
2018-Jan-31 07:00N 48°08' W 123°21'3 6.3
2018-Jan-31 06:31N 48°08' W 123°25'1 0.7
2018-Jan-31 05:06N 48°08' W 123°27'0 0.0
2018-Jan-31 04:48N 48°07' W 123°27'0 0.0
2018-Jan-30 17:33N 48°08' W 123°26'0 4.2
2018-Jan-30 17:30N 48°08' W 123°26'2 4.3
2018-Jan-30 17:00N 48°08' W 123°23'2 3.2
2018-Jan-30 16:28N 48°08' W 123°20'1 1.5
2018-Jan-30 16:01N 48°09' W 123°20'3 6.7
2018-Jan-30 15:31N 48°08' W 123°25'1 1.5
2018-Jan-30 14:48N 48°08' W 123°27'0 0.5
2018-Jan-30 14:30N 48°08' W 123°26'2 2.1
2018-Jan-30 13:31N 48°08' W 123°23'510.8
2018-Jan-30 13:00N 48°10' W 123°16'510.1
2018-Jan-30 12:31N 48°12' W 123°09'5 9.2
2018-Jan-30 12:00N 48°12' W 123°02'510.1
2018-Jan-30 11:31N 48°12' W 122°54'21 8.0
2018-Jan-30 08:57N 47°57' W 122°33'4 9.0
2018-Jan-30 08:31N 47°55' W 122°29'5 9.6
2018-Jan-30 08:01N 47°50' W 122°27'510.6
2018-Jan-30 07:31N 47°45' W 122°26'510.7
2018-Jan-30 07:00N 47°39' W 122°27'3 5.9
2018-Jan-30 06:30N 47°38' W 122°23'0 0.0
2018-Jan-30 05:57N 47°38' W 122°23'0 0.0
2018-Jan-30 05:30N 47°38' W 122°23'0 0.0
2018-Jan-30 05:00N 47°38' W 122°23'0 0.0
2018-Jan-30 04:30N 47°38' W 122°23'0 0.0
2018-Jan-30 03:57N 47°38' W 122°23'0 0.0
2018-Jan-30 03:30N 47°38' W 122°23'0 0.0
2018-Jan-30 03:00N 47°38' W 122°23'0 0.0
2018-Jan-30 02:30N 47°38' W 122°23'0 0.0
2018-Jan-30 02:00N 47°38' W 122°23'0 0.0
2018-Jan-30 01:30N 47°38' W 122°23'0 0.0
2018-Jan-30 01:00N 47°38' W 122°23'0 0.0
2018-Jan-30 00:30N 47°38' W 122°23'0 0.0
2018-Jan-30 00:00N 47°38' W 122°23'0 0.0
2018-Jan-29 23:30N 47°38' W 122°23'0 0.0
2018-Jan-29 23:01N 47°38' W 122°23'0 0.0
2018-Jan-29 22:30N 47°38' W 122°23'0 0.0
2018-Jan-29 22:00N 47°38' W 122°23'0 0.0
2018-Jan-29 21:30N 47°38' W 122°23'0 0.0
2018-Jan-29 21:00N 47°38' W 122°23'0 0.0
2018-Jan-29 20:30N 47°38' W 122°23'0 0.0
2018-Jan-29 20:00N 47°38' W 122°23'0 0.0
2018-Jan-29 19:30N 47°38' W 122°23'0 0.0
2018-Jan-29 19:00N 47°38' W 122°23'0 0.0
2018-Jan-29 18:30N 47°38' W 122°23'0 0.0
2018-Jan-29 18:00N 47°38' W 122°23'0 0.0
2018-Jan-29 17:27N 47°38' W 122°23'0 0.0
2018-Jan-29 17:00N 47°38' W 122°23'0 0.0
2018-Jan-29 16:30N 47°38' W 122°23'0 0.0
2018-Jan-29 16:00N 47°38' W 122°23'0 0.0
2018-Jan-29 15:30N 47°38' W 122°23'0 0.0
2018-Jan-29 15:00N 47°38' W 122°23'0 0.0
2018-Jan-29 14:30N 47°38' W 122°23'0 0.0
2018-Jan-29 14:00N 47°38' W 122°23'0 0.0
2018-Jan-29 13:30N 47°38' W 122°23'0 0.0
2018-Jan-29 13:00N 47°38' W 122°23'0 0.0
2018-Jan-29 12:30N 47°38' W 122°23'0 0.0
2018-Jan-29 12:00N 47°38' W 122°23'0 0.0
2018-Jan-29 11:30N 47°38' W 122°23'0 0.0
2018-Jan-29 11:00N 47°38' W 122°23'0 0.0
2018-Jan-29 10:30N 47°38' W 122°23'0 0.0
2018-Jan-29 10:00N 47°38' W 122°23'0 0.0
2018-Jan-29 09:30N 47°38' W 122°23'0 0.0
2018-Jan-29 09:00N 47°38' W 122°23'0 0.0
2018-Jan-29 08:30N 47°38' W 122°23'0 0.0
2018-Jan-29 08:00N 47°38' W 122°23'0 0.0
2018-Jan-29 07:30N 47°38' W 122°23'0 0.0
2018-Jan-29 07:00N 47°38' W 122°23'0 0.0
2018-Jan-29 06:30N 47°38' W 122°23'0 0.0
2018-Jan-29 06:00N 47°38' W 122°23'0 0.0
2018-Jan-29 05:30N 47°38' W 122°23'0 0.0
2018-Jan-29 05:00N 47°38' W 122°23'0 0.0
2018-Jan-29 04:27N 47°38' W 122°23'0 0.0
2018-Jan-29 03:58N 47°38' W 122°23'0 0.0
2018-Jan-29 03:30N 47°38' W 122°23'0 0.0
2018-Jan-29 03:00N 47°38' W 122°23'0 0.0
2018-Jan-29 02:30N 47°38' W 122°23'0 0.0
2018-Jan-29 02:00N 47°38' W 122°23'0 0.0
2018-Jan-29 01:30N 47°38' W 122°23'0 0.0
2018-Jan-29 01:00N 47°38' W 122°23'0 0.0
2018-Jan-29 00:30N 47°38' W 122°23'0 0.0
2018-Jan-29 00:00N 47°38' W 122°23'0 0.0
2018-Jan-28 23:30N 47°38' W 122°23'0 0.0
2018-Jan-28 22:58N 47°38' W 122°23'0 0.0
2018-Jan-28 22:30N 47°38' W 122°23'0 0.0
2018-Jan-28 21:57N 47°38' W 122°23'0 0.0
2018-Jan-28 21:24N 47°38' W 122°23'0 0.0
2018-Jan-28 21:00N 47°38' W 122°23'0 0.0
2018-Jan-28 20:24N 47°38' W 122°23'0 0.0
2018-Jan-28 19:54N 47°38' W 122°23'0 0.0
2018-Jan-28 19:30N 47°38' W 122°23'0 0.0
2018-Jan-28 19:00N 47°38' W 122°23'0 0.0
2018-Jan-28 18:30N 47°38' W 122°23'0 0.0
2018-Jan-28 18:00N 47°38' W 122°23'0 0.0
2018-Jan-28 17:30N 47°38' W 122°23'0 0.0
2018-Jan-28 17:00N 47°38' W 122°23'0 0.0
2018-Jan-28 16:24N 47°38' W 122°23'0 0.0
2018-Jan-28 16:00N 47°38' W 122°23'0 0.0
2018-Jan-28 15:30N 47°38' W 122°23'0 0.0
2018-Jan-28 15:00N 47°38' W 122°23'0 0.0
2018-Jan-28 14:30N 47°38' W 122°23'0 0.0
2018-Jan-28 13:54N 47°38' W 122°23'0 0.0
2018-Jan-28 13:30N 47°38' W 122°23'0 0.0
2018-Jan-28 13:00N 47°38' W 122°23'0 0.0
2018-Jan-28 12:30N 47°38' W 122°23'0 0.0
2018-Jan-28 12:00N 47°38' W 122°23'0 0.0
2018-Jan-28 11:30N 47°38' W 122°23'0 0.0
2018-Jan-28 10:57N 47°38' W 122°23'0 0.0
2018-Jan-28 10:30N 47°38' W 122°23'0 0.0
2018-Jan-28 10:00N 47°38' W 122°23'0 0.0
2018-Jan-28 09:30N 47°38' W 122°23'0 0.0
2018-Jan-28 09:00N 47°38' W 122°23'0 0.0
2018-Jan-28 08:30N 47°38' W 122°23'0 0.0
2018-Jan-28 08:00N 47°38' W 122°23'0 0.0
2018-Jan-28 07:30N 47°38' W 122°23'0 0.0
2018-Jan-28 06:57N 47°38' W 122°23'1 1.5
2018-Jan-28 06:30N 47°37' W 122°22'0 0.1
2018-Jan-28 06:01N 47°37' W 122°22'1 1.2
2018-Jan-28 05:30N 47°37' W 122°23'0 1.0
2018-Jan-28 05:00N 47°37' W 122°23'1 1.1
2018-Jan-28 04:31N 47°37' W 122°22'0 0.2
2018-Jan-28 04:01N 47°37' W 122°22'1 1.3
2018-Jan-28 03:31N 47°38' W 122°23'0 0.0
2018-Jan-28 03:00N 47°38' W 122°23'0 0.0
2018-Jan-28 02:30N 47°38' W 122°23'0 0.0
2018-Jan-28 02:00N 47°38' W 122°23'0 0.0
2018-Jan-28 01:30N 47°38' W 122°23'0 0.0
2018-Jan-28 01:00N 47°38' W 122°23'0 0.0
2018-Jan-28 00:30N 47°38' W 122°23'0 0.8
2018-Jan-28 00:00N 47°38' W 122°23'0 0.8
2018-Jan-27 23:30N 47°38' W 122°23'0 0.0
2018-Jan-27 23:00N 47°38' W 122°23'0 0.0
2018-Jan-27 22:30N 47°38' W 122°23'0 0.0
2018-Jan-27 22:00N 47°38' W 122°23'0 0.0
2018-Jan-27 21:30N 47°38' W 122°23'0 0.0
2018-Jan-27 21:00N 47°38' W 122°23'0 0.0
2018-Jan-27 20:30N 47°38' W 122°23'0 0.0
2018-Jan-27 20:00N 47°38' W 122°23'0 0.0
2018-Jan-27 19:30N 47°38' W 122°23'0 0.0
2018-Jan-27 19:00N 47°38' W 122°23'0 0.0
2018-Jan-27 18:30N 47°38' W 122°23'0 0.0
2018-Jan-27 18:00N 47°38' W 122°23'0 0.0
2018-Jan-27 17:30N 47°38' W 122°23'0 0.0
2018-Jan-27 17:00N 47°38' W 122°23'0 0.0
2018-Jan-27 16:30N 47°38' W 122°23'0 0.0
2018-Jan-27 16:00N 47°38' W 122°23'0 0.0
2018-Jan-27 15:29N 47°38' W 122°23'0 0.0
2018-Jan-27 15:00N 47°38' W 122°23'0 0.0
2018-Jan-27 14:30N 47°38' W 122°23'0 0.0
2018-Jan-27 13:59N 47°38' W 122°23'0 0.0
2018-Jan-27 13:30N 47°38' W 122°23'0 0.0
2018-Jan-27 13:00N 47°38' W 122°23'0 0.0
2018-Jan-27 12:30N 47°38' W 122°23'0 0.0
2018-Jan-27 12:00N 47°38' W 122°23'0 0.0
2018-Jan-27 11:30N 47°38' W 122°23'0 0.0
2018-Jan-27 11:00N 47°38' W 122°23'0 0.0
2018-Jan-27 10:29N 47°38' W 122°23'0 0.0
2018-Jan-27 10:00N 47°38' W 122°23'0 0.0
2018-Jan-27 09:30N 47°38' W 122°23'0 0.0
2018-Jan-27 09:00N 47°38' W 122°23'0 0.0
2018-Jan-27 08:30N 47°38' W 122°23'0 0.0
2018-Jan-27 07:58N 47°38' W 122°23'0 0.0
2018-Jan-27 07:30N 47°38' W 122°23'0 0.0
2018-Jan-27 07:00N 47°38' W 122°23'0 0.0
2018-Jan-27 06:30N 47°38' W 122°23'0 0.0
2018-Jan-27 06:00N 47°38' W 122°23'0 0.0
2018-Jan-27 05:30N 47°38' W 122°23'0 0.0
2018-Jan-27 05:00N 47°38' W 122°23'0 0.0
2018-Jan-27 04:30N 47°38' W 122°23'1 1.1
2018-Jan-27 04:00N 47°37' W 122°23'4 7.1
2018-Jan-27 03:30N 47°41' W 122°25'1 2.2
2018-Jan-27 03:00N 47°40' W 122°24'1 1.6
2018-Jan-27 02:30N 47°40' W 122°23'1 1.3
2018-Jan-27 02:00N 47°39' W 122°22'0 0.0
2018-Jan-27 01:30N 47°39' W 122°22'0 0.0
2018-Jan-27 00:57N 47°39' W 122°22'0 0.0
2018-Jan-27 00:30N 47°39' W 122°22'0 0.0
2018-Jan-27 00:00N 47°39' W 122°22'0 0.0
2018-Jan-26 23:30N 47°39' W 122°22'0 0.0
2018-Jan-26 22:57N 47°39' W 122°22'0 0.0
2018-Jan-26 22:30N 47°39' W 122°22'0 0.0
2018-Jan-26 22:00N 47°39' W 122°22'0 0.0
2018-Jan-26 21:30N 47°39' W 122°22'0 0.0
2018-Jan-26 21:00N 47°39' W 122°22'0 0.0
2018-Jan-26 20:30N 47°39' W 122°22'0 0.0
2018-Jan-26 20:00N 47°39' W 122°22'0 0.0
2018-Jan-26 19:30N 47°39' W 122°22'0 0.0
2018-Jan-26 19:00N 47°39' W 122°22'0 0.0
2018-Jan-26 18:30N 47°39' W 122°22'0 0.0
2018-Jan-26 18:00N 47°39' W 122°22'0 0.0
2018-Jan-26 17:30N 47°39' W 122°22'0 0.0
2018-Jan-26 16:57N 47°39' W 122°22'0 0.0
2018-Jan-26 16:30N 47°39' W 122°22'0 0.0
2018-Jan-26 16:00N 47°39' W 122°22'0 0.0
2018-Jan-26 15:30N 47°39' W 122°22'0 0.0
2018-Jan-26 15:00N 47°39' W 122°22'0 0.0
2018-Jan-26 14:30N 47°39' W 122°22'0 0.0
2018-Jan-26 14:00N 47°39' W 122°22'0 0.0
2018-Jan-26 13:30N 47°39' W 122°22'0 0.0
2018-Jan-26 13:00N 47°39' W 122°22'0 0.0
2018-Jan-26 12:30N 47°39' W 122°22'0 0.0
2018-Jan-26 12:00N 47°39' W 122°22'0 0.0
2018-Jan-26 11:30N 47°39' W 122°22'0 0.0
2018-Jan-26 11:00N 47°39' W 122°22'0 0.0
2018-Jan-26 10:30N 47°39' W 122°22'0 0.0
2018-Jan-26 10:00N 47°39' W 122°22'0 0.0
2018-Jan-26 09:30N 47°39' W 122°22'0 0.0
2018-Jan-26 09:00N 47°39' W 122°22'0 0.0
2018-Jan-26 08:30N 47°39' W 122°22'0 0.0
2018-Jan-26 08:00N 47°39' W 122°22'0 0.0
2018-Jan-26 07:30N 47°39' W 122°22'0 0.0
2018-Jan-26 07:00N 47°39' W 122°22'0 0.0
2018-Jan-26 06:30N 47°39' W 122°22'0 0.0
2018-Jan-26 06:00N 47°39' W 122°22'0 0.0
2018-Jan-26 05:30N 47°39' W 122°22'0 0.0
2018-Jan-26 05:00N 47°39' W 122°22'0 0.0
2018-Jan-26 04:30N 47°39' W 122°22'0 0.0
2018-Jan-26 04:00N 47°39' W 122°22'0 0.0
2018-Jan-26 03:30N 47°39' W 122°22'0 0.0
2018-Jan-26 03:00N 47°39' W 122°22'0 0.0
2018-Jan-26 02:30N 47°39' W 122°22'0 0.0
2018-Jan-26 02:00N 47°39' W 122°22'0 0.0
2018-Jan-26 01:30N 47°39' W 122°22'0 0.0
2018-Jan-26 01:00N 47°39' W 122°22'0 0.0
2018-Jan-26 00:30N 47°39' W 122°22'0 0.0
2018-Jan-26 00:00N 47°39' W 122°22'0 0.0
2018-Jan-25 23:30N 47°39' W 122°22'0 0.0
2018-Jan-25 23:00N 47°39' W 122°22'0 0.0
2018-Jan-25 22:30N 47°39' W 122°22'0 0.0
2018-Jan-25 22:00N 47°39' W 122°22'0 0.0
2018-Jan-25 21:30N 47°39' W 122°22'0 0.0
2018-Jan-25 21:00N 47°39' W 122°22'0 0.0
2018-Jan-25 20:30N 47°39' W 122°22'0 0.0
2018-Jan-25 20:00N 47°39' W 122°22'0 0.0
2018-Jan-25 19:27N 47°39' W 122°22'0 0.0
2018-Jan-25 19:00N 47°39' W 122°22'0 0.0
2018-Jan-25 18:27N 47°39' W 122°22'0 0.0
2018-Jan-25 17:54N 47°39' W 122°22'0 0.0
2018-Jan-25 17:30N 47°39' W 122°22'0 0.0
2018-Jan-25 17:00N 47°39' W 122°22'0 0.0
2018-Jan-25 16:30N 47°39' W 122°22'0 0.0
2018-Jan-25 15:57N 47°39' W 122°22'0 0.0
2018-Jan-25 15:30N 47°39' W 122°22'0 0.0
2018-Jan-25 15:00N 47°39' W 122°22'0 0.0
2018-Jan-25 14:27N 47°39' W 122°22'0 0.0
2018-Jan-25 14:00N 47°39' W 122°22'0 0.0
2018-Jan-25 13:30N 47°39' W 122°22'0 0.0
2018-Jan-25 13:00N 47°39' W 122°22'0 0.0
2018-Jan-25 12:30N 47°39' W 122°22'0 0.0
2018-Jan-25 12:00N 47°39' W 122°22'0 0.0
2018-Jan-25 11:30N 47°39' W 122°22'0 0.0
2018-Jan-25 11:00N 47°39' W 122°22'0 0.0
2018-Jan-25 10:30N 47°39' W 122°22'0 0.0
2018-Jan-25 10:00N 47°39' W 122°22'0 0.0
2018-Jan-25 09:30N 47°39' W 122°22'0 0.0
2018-Jan-25 09:00N 47°39' W 122°22'0 0.0
2018-Jan-25 08:30N 47°39' W 122°22'0 0.0
2018-Jan-25 08:00N 47°39' W 122°22'0 0.0
2018-Jan-25 07:30N 47°39' W 122°22'0 0.0
2018-Jan-25 07:00N 47°39' W 122°22'0 0.0
2018-Jan-25 06:30N 47°39' W 122°22'0 0.0
2018-Jan-25 06:00N 47°39' W 122°22'0 0.0
2018-Jan-25 05:30N 47°39' W 122°22'0 0.0
2018-Jan-25 05:00N 47°39' W 122°22'0 0.0
2018-Jan-25 04:30N 47°39' W 122°22'0 0.0
2018-Jan-25 04:00N 47°39' W 122°22'0 0.0
2018-Jan-25 03:30N 47°39' W 122°22'0 0.0
2018-Jan-25 03:00N 47°39' W 122°22'0 0.0
2018-Jan-25 02:30N 47°39' W 122°22'0 0.0
2018-Jan-25 02:00N 47°39' W 122°22'0 0.0
2018-Jan-25 01:30N 47°39' W 122°22'0 0.0
2018-Jan-25 01:00N 47°39' W 122°22'0 0.0
2018-Jan-25 00:30N 47°39' W 122°22'0 0.0
2018-Jan-25 00:00N 47°39' W 122°22'0 0.0
2018-Jan-24 23:30N 47°39' W 122°22'0 0.0
2018-Jan-24 23:00N 47°39' W 122°22'0 0.0
2018-Jan-24 22:30N 47°39' W 122°22'0 0.0
2018-Jan-24 22:00N 47°39' W 122°22'0 0.0
2018-Jan-24 21:30N 47°39' W 122°22'0 0.0
2018-Jan-24 21:00N 47°39' W 122°22'0 0.0
2018-Jan-24 20:30N 47°39' W 122°22'0 0.0
2018-Jan-24 19:57N 47°39' W 122°22'0 0.0
2018-Jan-24 19:30N 47°39' W 122°22'0 0.0
2018-Jan-24 19:00N 47°39' W 122°22'0 0.0
2018-Jan-24 18:30N 47°39' W 122°22'0 0.0
2018-Jan-24 18:00N 47°39' W 122°22'0 0.0
2018-Jan-24 17:30N 47°39' W 122°22'0 0.0
2018-Jan-24 17:00N 47°39' W 122°22'0 0.0
2018-Jan-24 16:30N 47°39' W 122°22'0 0.0
2018-Jan-24 16:00N 47°39' W 122°22'0 0.0
2018-Jan-24 15:30N 47°39' W 122°22'0 0.0
2018-Jan-24 15:00N 47°39' W 122°22'0 0.0
2018-Jan-24 14:30N 47°39' W 122°22'0 0.0
2018-Jan-24 14:00N 47°39' W 122°22'0 0.0
2018-Jan-24 13:30N 47°39' W 122°22'0 0.0
2018-Jan-24 13:00N 47°39' W 122°22'0 0.0
2018-Jan-24 12:27N 47°39' W 122°22'0 0.0
2018-Jan-24 11:57N 47°39' W 122°22'0 0.0
2018-Jan-24 11:30N 47°39' W 122°22'0 0.0
2018-Jan-24 11:00N 47°39' W 122°22'0 0.0
2018-Jan-24 10:30N 47°39' W 122°22'0 0.0
2018-Jan-24 10:00N 47°39' W 122°22'0 0.0
2018-Jan-24 09:30N 47°39' W 122°22'0 0.0
2018-Jan-24 09:00N 47°39' W 122°22'0 0.0
2018-Jan-24 08:30N 47°39' W 122°22'0 0.0
2018-Jan-24 08:00N 47°39' W 122°22'0 0.0
2018-Jan-24 07:30N 47°39' W 122°22'0 0.0
2018-Jan-24 06:57N 47°39' W 122°22'0 0.0
2018-Jan-24 06:30N 47°39' W 122°22'0 0.0
2018-Jan-24 06:00N 47°39' W 122°22'0 0.0
2018-Jan-24 05:30N 47°39' W 122°22'0 0.0
2018-Jan-24 05:00N 47°39' W 122°22'0 0.0
2018-Jan-24 04:30N 47°39' W 122°22'0 0.0
2018-Jan-24 04:00N 47°39' W 122°22'0 0.0
2018-Jan-24 03:30N 47°39' W 122°22'0 0.0
2018-Jan-24 03:00N 47°39' W 122°22'0 0.0
2018-Jan-24 02:30N 47°39' W 122°22'0 0.0
2018-Jan-24 02:00N 47°39' W 122°22'0 0.0
2018-Jan-24 01:30N 47°39' W 122°22'0 0.0
2018-Jan-24 01:00N 47°39' W 122°22'0 0.0
2018-Jan-24 00:27N 47°39' W 122°22'0 0.0
2018-Jan-24 00:00N 47°39' W 122°22'0 0.0
2018-Jan-23 23:30N 47°39' W 122°22'0 0.0
2018-Jan-23 22:57N 47°39' W 122°22'0 0.0
2018-Jan-23 22:30N 47°39' W 122°22'0 0.0
2018-Jan-23 22:00N 47°39' W 122°22'0 0.0
2018-Jan-23 21:27N 47°39' W 122°22'0 0.0
2018-Jan-23 21:00N 47°39' W 122°22'0 0.0
2018-Jan-23 20:30N 47°39' W 122°22'0 0.0
2018-Jan-23 20:00N 47°39' W 122°22'0 0.0
2018-Jan-23 19:30N 47°39' W 122°22'0 0.0
2018-Jan-23 19:00N 47°39' W 122°22'0 0.0
2018-Jan-23 18:30N 47°39' W 122°22'0 0.0
2018-Jan-23 18:00N 47°39' W 122°22'0 0.0
2018-Jan-23 17:30N 47°39' W 122°22'0 0.0
2018-Jan-23 17:00N 47°39' W 122°22'0 0.0
2018-Jan-23 16:30N 47°39' W 122°22'0 0.0
2018-Jan-23 16:00N 47°39' W 122°22'0 0.1
2018-Jan-23 15:30N 47°39' W 122°22'0 0.0
2018-Jan-23 15:00N 47°39' W 122°22'0 0.0
2018-Jan-23 14:30N 47°39' W 122°22'0 0.0
2018-Jan-23 13:57N 47°39' W 122°22'0 0.0
2018-Jan-23 13:27N 47°39' W 122°22'0 0.0
2018-Jan-23 13:00N 47°39' W 122°22'0 0.0
2018-Jan-23 12:30N 47°39' W 122°22'0 0.0
2018-Jan-23 12:00N 47°39' W 122°22'0 0.0
2018-Jan-23 11:30N 47°39' W 122°22'0 0.0
2018-Jan-23 11:00N 47°39' W 122°22'0 0.0
2018-Jan-23 10:30N 47°39' W 122°22'0 0.0
2018-Jan-23 10:00N 47°39' W 122°22'0 0.0
2018-Jan-23 09:30N 47°39' W 122°22'0 0.0
2018-Jan-23 09:00N 47°39' W 122°22'0 0.0
2018-Jan-23 08:30N 47°39' W 122°22'0 0.0
2018-Jan-23 08:00N 47°39' W 122°22'0 0.0
2018-Jan-23 07:30N 47°39' W 122°22'0 0.0
2018-Jan-23 07:00N 47°39' W 122°22'0 0.1
2018-Jan-23 06:30N 47°39' W 122°22'0 0.1
2018-Jan-23 06:00N 47°39' W 122°22'0 0.0
2018-Jan-23 05:30N 47°39' W 122°22'0 0.0
2018-Jan-23 05:00N 47°39' W 122°22'0 0.0
2018-Jan-23 04:30N 47°39' W 122°22'0 0.0
2018-Jan-23 04:00N 47°39' W 122°22'0 0.0
2018-Jan-23 03:30N 47°39' W 122°22'0 0.0
2018-Jan-23 03:00N 47°39' W 122°22'0 0.0
2018-Jan-23 02:30N 47°39' W 122°22'0 0.0
2018-Jan-23 02:00N 47°39' W 122°22'0 0.0
2018-Jan-23 01:30N 47°39' W 122°22'0 0.0
2018-Jan-23 01:00N 47°39' W 122°22'0 0.0
2018-Jan-23 00:30N 47°39' W 122°22'0 0.0
2018-Jan-23 00:00N 47°39' W 122°22'0 0.0
2018-Jan-22 23:30N 47°39' W 122°22'0 0.0
2018-Jan-22 23:00N 47°39' W 122°22'0 0.0
2018-Jan-22 22:30N 47°39' W 122°22'0 0.0
2018-Jan-22 22:00N 47°39' W 122°22'0 0.0
2018-Jan-22 21:30N 47°39' W 122°22'0 0.0
2018-Jan-22 21:00N 47°39' W 122°22'0 0.0
2018-Jan-22 20:30N 47°39' W 122°22'0 0.0
2018-Jan-22 20:00N 47°39' W 122°22'0 0.0
2018-Jan-22 19:30N 47°39' W 122°22'0 0.0
2018-Jan-22 19:00N 47°39' W 122°22'0 0.0
2018-Jan-22 18:30N 47°39' W 122°22'0 0.0
2018-Jan-22 18:00N 47°39' W 122°22'0 0.0
2018-Jan-22 17:27N 47°39' W 122°22'0 0.0
2018-Jan-22 17:00N 47°39' W 122°22'0 0.0
2018-Jan-22 16:30N 47°39' W 122°22'0 0.0
2018-Jan-22 16:00N 47°39' W 122°22'0 0.0
2018-Jan-22 15:30N 47°39' W 122°22'0 0.0
2018-Jan-22 15:00N 47°39' W 122°22'0 0.0
2018-Jan-22 14:30N 47°39' W 122°22'0 0.0
2018-Jan-22 14:00N 47°39' W 122°22'0 0.0
2018-Jan-22 13:30N 47°39' W 122°22'0 0.0
2018-Jan-22 12:54N 47°39' W 122°22'0 0.0
2018-Jan-22 12:30N 47°39' W 122°22'0 0.0
2018-Jan-22 12:00N 47°39' W 122°22'0 0.0
2018-Jan-22 11:30N 47°39' W 122°22'0 0.0
2018-Jan-22 11:00N 47°39' W 122°22'0 0.0
2018-Jan-22 10:30N 47°39' W 122°22'0 0.0
2018-Jan-22 10:00N 47°39' W 122°22'0 0.0
2018-Jan-22 09:30N 47°39' W 122°22'0 0.1
2018-Jan-22 09:00N 47°39' W 122°22'0 0.0
2018-Jan-22 08:30N 47°39' W 122°22'0 0.1
2018-Jan-22 08:00N 47°39' W 122°22'0 0.0
2018-Jan-22 07:30N 47°39' W 122°22'0 0.0
2018-Jan-22 07:00N 47°39' W 122°22'0 0.0
2018-Jan-22 06:30N 47°39' W 122°22'0 0.0
2018-Jan-22 06:00N 47°39' W 122°22'0 0.0
2018-Jan-22 05:30N 47°39' W 122°22'0 0.0
2018-Jan-22 05:00N 47°39' W 122°22'0 0.0
2018-Jan-22 04:30N 47°39' W 122°22'0 0.0
2018-Jan-22 04:00N 47°39' W 122°22'0 0.0
2018-Jan-22 03:30N 47°39' W 122°22'0 0.0
2018-Jan-22 03:00N 47°39' W 122°22'0 0.0
2018-Jan-22 02:30N 47°39' W 122°22'0 0.0
2018-Jan-22 02:00N 47°39' W 122°22'0 0.0
2018-Jan-22 01:30N 47°39' W 122°22'0 0.0
2018-Jan-22 00:57N 47°39' W 122°22'0 0.0
2018-Jan-22 00:30N 47°39' W 122°22'0 0.0
2018-Jan-22 00:00N 47°39' W 122°22'0 0.1
2018-Jan-21 23:27N 47°39' W 122°22'0 0.1
2018-Jan-21 23:00N 47°39' W 122°22'0 0.0
2018-Jan-21 22:30N 47°39' W 122°22'0 0.0
2018-Jan-21 22:00N 47°39' W 122°22'0 0.0
2018-Jan-21 21:30N 47°39' W 122°22'0 0.0
2018-Jan-21 21:00N 47°39' W 122°22'  
Track history (hours):
 
Tides and Currents Weather Stations Pressure Air Temp Water Temp Dewpoint Dewpoint Depression Visibility Wind Speed Wind Dir Waves Ship Positions

Lynn Marie

Owner: Foss Maritime Co, Seattle, WA. More information available from US FCC via Universal Licensing System and Coast Guard Vessel Documentation Center.

Last reported at 2018-Jan-31 20:58 UTC. Time now 2018-Feb-18 08:36 UTC.
Position N 48°31' W 122°37'.
Warning: this ship's position is 17 days out of date.

Length 30 m; draft 18 m.

Type: Tug. MMSI: 366919770.

Date/timePositionNaut miles runAvg speedWind from/ knotsBaromVisibWave heightAir tempDewpointWater temp
2018-Jan-31 20:58N 48°31' W 122°37'0 0.0
2018-Jan-31 20:30N 48°31' W 122°37'0 0.0
2018-Jan-31 20:01N 48°31' W 122°37'0 0.0
2018-Jan-31 19:31N 48°31' W 122°37'0 0.0
2018-Jan-31 19:01N 48°31' W 122°37'0 0.0
2018-Jan-31 18:30N 48°31' W 122°37'0 0.0
2018-Jan-31 18:01N 48°31' W 122°37'0 0.0
2018-Jan-31 17:31N 48°31' W 122°37'0 0.0
2018-Jan-31 17:01N 48°31' W 122°37'0 0.0
2018-Jan-31 16:31N 48°31' W 122°37'0 0.0
2018-Jan-31 16:01N 48°31' W 122°37'0 0.0
2018-Jan-31 15:30N 48°31' W 122°37'0 0.0
2018-Jan-31 15:01N 48°31' W 122°37'0 0.0
2018-Jan-31 14:31N 48°31' W 122°37'0 0.0
2018-Jan-31 13:00N 48°31' W 122°37'0 0.0
2018-Jan-31 12:31N 48°31' W 122°37'3 5.5
2018-Jan-31 12:00N 48°31' W 122°41'4 7.1
2018-Jan-31 11:31N 48°29' W 122°44'4 8.9
2018-Jan-31 11:00N 48°25' W 122°48'4 7.3
2018-Jan-31 10:30N 48°22' W 122°52'4 7.0
2018-Jan-31 09:59N 48°20' W 122°56'3 7.2
2018-Jan-31 09:30N 48°18' W 123°01'4 6.9
2018-Jan-31 09:00N 48°16' W 123°05'3 6.8
2018-Jan-31 08:30N 48°14' W 123°09'3 6.7
2018-Jan-31 08:00N 48°13' W 123°14'3 6.4
2018-Jan-31 07:30N 48°11' W 123°17'3 6.5
2018-Jan-31 07:00N 48°08' W 123°21'3 6.3
2018-Jan-31 06:31N 48°08' W 123°25'1 0.7
2018-Jan-31 05:06N 48°08' W 123°27'0 0.0
2018-Jan-31 04:48N 48°07' W 123°27'0 0.0
2018-Jan-30 17:33N 48°08' W 123°26'0 4.2
2018-Jan-30 17:30N 48°08' W 123°26'2 4.3
2018-Jan-30 17:00N 48°08' W 123°23'2 3.2
2018-Jan-30 16:28N 48°08' W 123°20'1 1.5
2018-Jan-30 16:01N 48°09' W 123°20'3 6.7
2018-Jan-30 15:31N 48°08' W 123°25'1 1.5
2018-Jan-30 14:48N 48°08' W 123°27'0 0.5
2018-Jan-30 14:30N 48°08' W 123°26'2 2.1
2018-Jan-30 13:31N 48°08' W 123°23'510.8
2018-Jan-30 13:00N 48°10' W 123°16'510.1
2018-Jan-30 12:31N 48°12' W 123°09'5 9.2
2018-Jan-30 12:00N 48°12' W 123°02'510.1
2018-Jan-30 11:31N 48°12' W 122°54'21 8.0
2018-Jan-30 08:57N 47°57' W 122°33'4 9.0
2018-Jan-30 08:31N 47°55' W 122°29'5 9.6
2018-Jan-30 08:01N 47°50' W 122°27'510.6
2018-Jan-30 07:31N 47°45' W 122°26'510.7
2018-Jan-30 07:00N 47°39' W 122°27'3 5.9
2018-Jan-30 06:30N 47°38' W 122°23'0 0.0
2018-Jan-30 05:57N 47°38' W 122°23'0 0.0
2018-Jan-30 05:30N 47°38' W 122°23'0 0.0
2018-Jan-30 05:00N 47°38' W 122°23'0 0.0
2018-Jan-30 04:30N 47°38' W 122°23'0 0.0
2018-Jan-30 03:57N 47°38' W 122°23'0 0.0
2018-Jan-30 03:30N 47°38' W 122°23'0 0.0
2018-Jan-30 03:00N 47°38' W 122°23'0 0.0
2018-Jan-30 02:30N 47°38' W 122°23'0 0.0
2018-Jan-30 02:00N 47°38' W 122°23'0 0.0
2018-Jan-30 01:30N 47°38' W 122°23'0 0.0
2018-Jan-30 01:00N 47°38' W 122°23'0 0.0
2018-Jan-30 00:30N 47°38' W 122°23'0 0.0
2018-Jan-30 00:00N 47°38' W 122°23'0 0.0
2018-Jan-29 23:30N 47°38' W 122°23'0 0.0
2018-Jan-29 23:01N 47°38' W 122°23'0 0.0
2018-Jan-29 22:30N 47°38' W 122°23'0 0.0
2018-Jan-29 22:00N 47°38' W 122°23'0 0.0
2018-Jan-29 21:30N 47°38' W 122°23'0 0.0
2018-Jan-29 21:00N 47°38' W 122°23'0 0.0
2018-Jan-29 20:30N 47°38' W 122°23'0 0.0
2018-Jan-29 20:00N 47°38' W 122°23'0 0.0
2018-Jan-29 19:30N 47°38' W 122°23'0 0.0
2018-Jan-29 19:00N 47°38' W 122°23'0 0.0
2018-Jan-29 18:30N 47°38' W 122°23'0 0.0
2018-Jan-29 18:00N 47°38' W 122°23'0 0.0
2018-Jan-29 17:27N 47°38' W 122°23'0 0.0
2018-Jan-29 17:00N 47°38' W 122°23'0 0.0
2018-Jan-29 16:30N 47°38' W 122°23'0 0.0
2018-Jan-29 16:00N 47°38' W 122°23'0 0.0
2018-Jan-29 15:30N 47°38' W 122°23'0 0.0
2018-Jan-29 15:00N 47°38' W 122°23'0 0.0
2018-Jan-29 14:30N 47°38' W 122°23'0 0.0
2018-Jan-29 14:00N 47°38' W 122°23'0 0.0
2018-Jan-29 13:30N 47°38' W 122°23'0 0.0
2018-Jan-29 13:00N 47°38' W 122°23'0 0.0
2018-Jan-29 12:30N 47°38' W 122°23'0 0.0
2018-Jan-29 12:00N 47°38' W 122°23'0 0.0
2018-Jan-29 11:30N 47°38' W 122°23'0 0.0
2018-Jan-29 11:00N 47°38' W 122°23'0 0.0
2018-Jan-29 10:30N 47°38' W 122°23'0 0.0
2018-Jan-29 10:00N 47°38' W 122°23'0 0.0
2018-Jan-29 09:30N 47°38' W 122°23'0 0.0
2018-Jan-29 09:00N 47°38' W 122°23'0 0.0
2018-Jan-29 08:30N 47°38' W 122°23'0 0.0
2018-Jan-29 08:00N 47°38' W 122°23'0 0.0
2018-Jan-29 07:30N 47°38' W 122°23'0 0.0
2018-Jan-29 07:00N 47°38' W 122°23'0 0.0
2018-Jan-29 06:30N 47°38' W 122°23'0 0.0
2018-Jan-29 06:00N 47°38' W 122°23'0 0.0
2018-Jan-29 05:30N 47°38' W 122°23'0 0.0
2018-Jan-29 05:00N 47°38' W 122°23'0 0.0
2018-Jan-29 04:27N 47°38' W 122°23'0 0.0
2018-Jan-29 03:58N 47°38' W 122°23'0 0.0
2018-Jan-29 03:30N 47°38' W 122°23'0 0.0
2018-Jan-29 03:00N 47°38' W 122°23'0 0.0
2018-Jan-29 02:30N 47°38' W 122°23'0 0.0
2018-Jan-29 02:00N 47°38' W 122°23'0 0.0
2018-Jan-29 01:30N 47°38' W 122°23'0 0.0
2018-Jan-29 01:00N 47°38' W 122°23'0 0.0
2018-Jan-29 00:30N 47°38' W 122°23'0 0.0
2018-Jan-29 00:00N 47°38' W 122°23'0 0.0
2018-Jan-28 23:30N 47°38' W 122°23'0 0.0
2018-Jan-28 22:58N 47°38' W 122°23'0 0.0
2018-Jan-28 22:30N 47°38' W 122°23'0 0.0
2018-Jan-28 21:57N 47°38' W 122°23'0 0.0
2018-Jan-28 21:24N 47°38' W 122°23'0 0.0
2018-Jan-28 21:00N 47°38' W 122°23'0 0.0
2018-Jan-28 20:24N 47°38' W 122°23'0 0.0
2018-Jan-28 19:54N 47°38' W 122°23'0 0.0
2018-Jan-28 19:30N 47°38' W 122°23'0 0.0
2018-Jan-28 19:00N 47°38' W 122°23'0 0.0
2018-Jan-28 18:30N 47°38' W 122°23'0 0.0
2018-Jan-28 18:00N 47°38' W 122°23'0 0.0
2018-Jan-28 17:30N 47°38' W 122°23'0 0.0
2018-Jan-28 17:00N 47°38' W 122°23'0 0.0
2018-Jan-28 16:24N 47°38' W 122°23'0 0.0
2018-Jan-28 16:00N 47°38' W 122°23'0 0.0
2018-Jan-28 15:30N 47°38' W 122°23'0 0.0
2018-Jan-28 15:00N 47°38' W 122°23'0 0.0
2018-Jan-28 14:30N 47°38' W 122°23'0 0.0
2018-Jan-28 13:54N 47°38' W 122°23'0 0.0
2018-Jan-28 13:30N 47°38' W 122°23'0 0.0
2018-Jan-28 13:00N 47°38' W 122°23'0 0.0
2018-Jan-28 12:30N 47°38' W 122°23'0 0.0
2018-Jan-28 12:00N 47°38' W 122°23'0 0.0
2018-Jan-28 11:30N 47°38' W 122°23'0 0.0
2018-Jan-28 10:57N 47°38' W 122°23'0 0.0
2018-Jan-28 10:30N 47°38' W 122°23'0 0.0
2018-Jan-28 10:00N 47°38' W 122°23'0 0.0
2018-Jan-28 09:30N 47°38' W 122°23'0 0.0
2018-Jan-28 09:00N 47°38' W 122°23'0 0.0
2018-Jan-28 08:30N 47°38' W 122°23'0 0.0
2018-Jan-28 08:00N 47°38' W 122°23'0 0.0
2018-Jan-28 07:30N 47°38' W 122°23'0 0.0
2018-Jan-28 06:57N 47°38' W 122°23'1 1.5
2018-Jan-28 06:30N 47°37' W 122°22'0 0.1
2018-Jan-28 06:01N 47°37' W 122°22'1 1.2
2018-Jan-28 05:30N 47°37' W 122°23'0 1.0
2018-Jan-28 05:00N 47°37' W 122°23'1 1.1
2018-Jan-28 04:31N 47°37' W 122°22'0 0.2
2018-Jan-28 04:01N 47°37' W 122°22'1 1.3
2018-Jan-28 03:31N 47°38' W 122°23'0 0.0
2018-Jan-28 03:00N 47°38' W 122°23'0 0.0
2018-Jan-28 02:30N 47°38' W 122°23'0 0.0
2018-Jan-28 02:00N 47°38' W 122°23'0 0.0
2018-Jan-28 01:30N 47°38' W 122°23'0 0.0
2018-Jan-28 01:00N 47°38' W 122°23'0 0.0
2018-Jan-28 00:30N 47°38' W 122°23'0 0.8
2018-Jan-28 00:00N 47°38' W 122°23'0 0.8
2018-Jan-27 23:30N 47°38' W 122°23'0 0.0
2018-Jan-27 23:00N 47°38' W 122°23'0 0.0
2018-Jan-27 22:30N 47°38' W 122°23'0 0.0
2018-Jan-27 22:00N 47°38' W 122°23'0 0.0
2018-Jan-27 21:30N 47°38' W 122°23'0 0.0
2018-Jan-27 21:00N 47°38' W 122°23'0 0.0
2018-Jan-27 20:30N 47°38' W 122°23'0 0.0
2018-Jan-27 20:00N 47°38' W 122°23'0 0.0
2018-Jan-27 19:30N 47°38' W 122°23'0 0.0
2018-Jan-27 19:00N 47°38' W 122°23'0 0.0
2018-Jan-27 18:30N 47°38' W 122°23'0 0.0
2018-Jan-27 18:00N 47°38' W 122°23'0 0.0
2018-Jan-27 17:30N 47°38' W 122°23'0 0.0
2018-Jan-27 17:00N 47°38' W 122°23'0 0.0
2018-Jan-27 16:30N 47°38' W 122°23'0 0.0
2018-Jan-27 16:00N 47°38' W 122°23'0 0.0
2018-Jan-27 15:29N 47°38' W 122°23'0 0.0
2018-Jan-27 15:00N 47°38' W 122°23'0 0.0
2018-Jan-27 14:30N 47°38' W 122°23'0 0.0
2018-Jan-27 13:59N 47°38' W 122°23'0 0.0
2018-Jan-27 13:30N 47°38' W 122°23'0 0.0
2018-Jan-27 13:00N 47°38' W 122°23'0 0.0
2018-Jan-27 12:30N 47°38' W 122°23'0 0.0
2018-Jan-27 12:00N 47°38' W 122°23'0 0.0
2018-Jan-27 11:30N 47°38' W 122°23'0 0.0
2018-Jan-27 11:00N 47°38' W 122°23'0 0.0
2018-Jan-27 10:29N 47°38' W 122°23'0 0.0
2018-Jan-27 10:00N 47°38' W 122°23'0 0.0
2018-Jan-27 09:30N 47°38' W 122°23'0 0.0
2018-Jan-27 09:00N 47°38' W 122°23'0 0.0
2018-Jan-27 08:30N 47°38' W 122°23'0 0.0
2018-Jan-27 07:58N 47°38' W 122°23'0 0.0
2018-Jan-27 07:30N 47°38' W 122°23'0 0.0
2018-Jan-27 07:00N 47°38' W 122°23'0 0.0
2018-Jan-27 06:30N 47°38' W 122°23'0 0.0
2018-Jan-27 06:00N 47°38' W 122°23'0 0.0
2018-Jan-27 05:30N 47°38' W 122°23'0 0.0
2018-Jan-27 05:00N 47°38' W 122°23'0 0.0
2018-Jan-27 04:30N 47°38' W 122°23'1 1.1
2018-Jan-27 04:00N 47°37' W 122°23'4 7.1
2018-Jan-27 03:30N 47°41' W 122°25'1 2.2
2018-Jan-27 03:00N 47°40' W 122°24'1 1.6
2018-Jan-27 02:30N 47°40' W 122°23'1 1.3
2018-Jan-27 02:00N 47°39' W 122°22'0 0.0
2018-Jan-27 01:30N 47°39' W 122°22'0 0.0
2018-Jan-27 00:57N 47°39' W 122°22'0 0.0
2018-Jan-27 00:30N 47°39' W 122°22'0 0.0
2018-Jan-27 00:00N 47°39' W 122°22'0 0.0
2018-Jan-26 23:30N 47°39' W 122°22'0 0.0
2018-Jan-26 22:57N 47°39' W 122°22'0 0.0
2018-Jan-26 22:30N 47°39' W 122°22'0 0.0
2018-Jan-26 22:00N 47°39' W 122°22'0 0.0
2018-Jan-26 21:30N 47°39' W 122°22'0 0.0
2018-Jan-26 21:00N 47°39' W 122°22'0 0.0
2018-Jan-26 20:30N 47°39' W 122°22'0 0.0
2018-Jan-26 20:00N 47°39' W 122°22'0 0.0
2018-Jan-26 19:30N 47°39' W 122°22'0 0.0
2018-Jan-26 19:00N 47°39' W 122°22'0 0.0
2018-Jan-26 18:30N 47°39' W 122°22'0 0.0
2018-Jan-26 18:00N 47°39' W 122°22'0 0.0
2018-Jan-26 17:30N 47°39' W 122°22'0 0.0
2018-Jan-26 16:57N 47°39' W 122°22'0 0.0
2018-Jan-26 16:30N 47°39' W 122°22'0 0.0
2018-Jan-26 16:00N 47°39' W 122°22'0 0.0
2018-Jan-26 15:30N 47°39' W 122°22'0 0.0
2018-Jan-26 15:00N 47°39' W 122°22'0 0.0
2018-Jan-26 14:30N 47°39' W 122°22'0 0.0
2018-Jan-26 14:00N 47°39' W 122°22'0 0.0
2018-Jan-26 13:30N 47°39' W 122°22'0 0.0
2018-Jan-26 13:00N 47°39' W 122°22'0 0.0
2018-Jan-26 12:30N 47°39' W 122°22'0 0.0
2018-Jan-26 12:00N 47°39' W 122°22'0 0.0
2018-Jan-26 11:30N 47°39' W 122°22'0 0.0
2018-Jan-26 11:00N 47°39' W 122°22'0 0.0
2018-Jan-26 10:30N 47°39' W 122°22'0 0.0
2018-Jan-26 10:00N 47°39' W 122°22'0 0.0
2018-Jan-26 09:30N 47°39' W 122°22'0 0.0
2018-Jan-26 09:00N 47°39' W 122°22'0 0.0
2018-Jan-26 08:30N 47°39' W 122°22'0 0.0
2018-Jan-26 08:00N 47°39' W 122°22'0 0.0
2018-Jan-26 07:30N 47°39' W 122°22'0 0.0
2018-Jan-26 07:00N 47°39' W 122°22'0 0.0
2018-Jan-26 06:30N 47°39' W 122°22'0 0.0
2018-Jan-26 06:00N 47°39' W 122°22'0 0.0
2018-Jan-26 05:30N 47°39' W 122°22'0 0.0
2018-Jan-26 05:00N 47°39' W 122°22'0 0.0
2018-Jan-26 04:30N 47°39' W 122°22'0 0.0
2018-Jan-26 04:00N 47°39' W 122°22'0 0.0
2018-Jan-26 03:30N 47°39' W 122°22'0 0.0
2018-Jan-26 03:00N 47°39' W 122°22'0 0.0
2018-Jan-26 02:30N 47°39' W 122°22'0 0.0
2018-Jan-26 02:00N 47°39' W 122°22'0 0.0
2018-Jan-26 01:30N 47°39' W 122°22'0 0.0
2018-Jan-26 01:00N 47°39' W 122°22'0 0.0
2018-Jan-26 00:30N 47°39' W 122°22'0 0.0
2018-Jan-26 00:00N 47°39' W 122°22'0 0.0
2018-Jan-25 23:30N 47°39' W 122°22'0 0.0
2018-Jan-25 23:00N 47°39' W 122°22'0 0.0
2018-Jan-25 22:30N 47°39' W 122°22'0 0.0
2018-Jan-25 22:00N 47°39' W 122°22'0 0.0
2018-Jan-25 21:30N 47°39' W 122°22'0 0.0
2018-Jan-25 21:00N 47°39' W 122°22'0 0.0
2018-Jan-25 20:30N 47°39' W 122°22'0 0.0
2018-Jan-25 20:00N 47°39' W 122°22'0 0.0
2018-Jan-25 19:27N 47°39' W 122°22'0 0.0
2018-Jan-25 19:00N 47°39' W 122°22'0 0.0
2018-Jan-25 18:27N 47°39' W 122°22'0 0.0
2018-Jan-25 17:54N 47°39' W 122°22'0 0.0
2018-Jan-25 17:30N 47°39' W 122°22'0 0.0
2018-Jan-25 17:00N 47°39' W 122°22'0 0.0
2018-Jan-25 16:30N 47°39' W 122°22'0 0.0
2018-Jan-25 15:57N 47°39' W 122°22'0 0.0
2018-Jan-25 15:30N 47°39' W 122°22'0 0.0
2018-Jan-25 15:00N 47°39' W 122°22'0 0.0
2018-Jan-25 14:27N 47°39' W 122°22'0 0.0
2018-Jan-25 14:00N 47°39' W 122°22'0 0.0
2018-Jan-25 13:30N 47°39' W 122°22'0 0.0
2018-Jan-25 13:00N 47°39' W 122°22'0 0.0
2018-Jan-25 12:30N 47°39' W 122°22'0 0.0
2018-Jan-25 12:00N 47°39' W 122°22'0 0.0
2018-Jan-25 11:30N 47°39' W 122°22'0 0.0
2018-Jan-25 11:00N 47°39' W 122°22'0 0.0
2018-Jan-25 10:30N 47°39' W 122°22'0 0.0
2018-Jan-25 10:00N 47°39' W 122°22'0 0.0
2018-Jan-25 09:30N 47°39' W 122°22'0 0.0
2018-Jan-25 09:00N 47°39' W 122°22'0 0.0
2018-Jan-25 08:30N 47°39' W 122°22'0 0.0
2018-Jan-25 08:00N 47°39' W 122°22'0 0.0
2018-Jan-25 07:30N 47°39' W 122°22'0 0.0
2018-Jan-25 07:00N 47°39' W 122°22'0 0.0
2018-Jan-25 06:30N 47°39' W 122°22'0 0.0
2018-Jan-25 06:00N 47°39' W 122°22'0 0.0
2018-Jan-25 05:30N 47°39' W 122°22'0 0.0
2018-Jan-25 05:00N 47°39' W 122°22'0 0.0
2018-Jan-25 04:30N 47°39' W 122°22'0 0.0
2018-Jan-25 04:00N 47°39' W 122°22'0 0.0
2018-Jan-25 03:30N 47°39' W 122°22'0 0.0
2018-Jan-25 03:00N 47°39' W 122°22'0 0.0
2018-Jan-25 02:30N 47°39' W 122°22'0 0.0
2018-Jan-25 02:00N 47°39' W 122°22'0 0.0
2018-Jan-25 01:30N 47°39' W 122°22'0 0.0
2018-Jan-25 01:00N 47°39' W 122°22'0 0.0
2018-Jan-25 00:30N 47°39' W 122°22'0 0.0
2018-Jan-25 00:00N 47°39' W 122°22'0 0.0
2018-Jan-24 23:30N 47°39' W 122°22'0 0.0
2018-Jan-24 23:00N 47°39' W 122°22'0 0.0
2018-Jan-24 22:30N 47°39' W 122°22'0 0.0
2018-Jan-24 22:00N 47°39' W 122°22'0 0.0
2018-Jan-24 21:30N 47°39' W 122°22'0 0.0
2018-Jan-24 21:00N 47°39' W 122°22'0 0.0
2018-Jan-24 20:30N 47°39' W 122°22'0 0.0
2018-Jan-24 19:57N 47°39' W 122°22'0 0.0
2018-Jan-24 19:30N 47°39' W 122°22'0 0.0
2018-Jan-24 19:00N 47°39' W 122°22'0 0.0
2018-Jan-24 18:30N 47°39' W 122°22'0 0.0
2018-Jan-24 18:00N 47°39' W 122°22'0 0.0
2018-Jan-24 17:30N 47°39' W 122°22'0 0.0
2018-Jan-24 17:00N 47°39' W 122°22'0 0.0
2018-Jan-24 16:30N 47°39' W 122°22'0 0.0
2018-Jan-24 16:00N 47°39' W 122°22'0 0.0
2018-Jan-24 15:30N 47°39' W 122°22'0 0.0
2018-Jan-24 15:00N 47°39' W 122°22'0 0.0
2018-Jan-24 14:30N 47°39' W 122°22'0 0.0
2018-Jan-24 14:00N 47°39' W 122°22'0 0.0
2018-Jan-24 13:30N 47°39' W 122°22'0 0.0
2018-Jan-24 13:00N 47°39' W 122°22'0 0.0
2018-Jan-24 12:27N 47°39' W 122°22'0 0.0
2018-Jan-24 11:57N 47°39' W 122°22'0 0.0
2018-Jan-24 11:30N 47°39' W 122°22'0 0.0
2018-Jan-24 11:00N 47°39' W 122°22'0 0.0
2018-Jan-24 10:30N 47°39' W 122°22'0 0.0
2018-Jan-24 10:00N 47°39' W 122°22'0 0.0
2018-Jan-24 09:30N 47°39' W 122°22'0 0.0
2018-Jan-24 09:00N 47°39' W 122°22'0 0.0
2018-Jan-24 08:30N 47°39' W 122°22'0 0.0
2018-Jan-24 08:00N 47°39' W 122°22'0 0.0
2018-Jan-24 07:30N 47°39' W 122°22'0 0.0
2018-Jan-24 06:57N 47°39' W 122°22'0 0.0
2018-Jan-24 06:30N 47°39' W 122°22'0 0.0
2018-Jan-24 06:00N 47°39' W 122°22'0 0.0
2018-Jan-24 05:30N 47°39' W 122°22'0 0.0
2018-Jan-24 05:00N 47°39' W 122°22'0 0.0
2018-Jan-24 04:30N 47°39' W 122°22'0 0.0
2018-Jan-24 04:00N 47°39' W 122°22'0 0.0
2018-Jan-24 03:30N 47°39' W 122°22'0 0.0
2018-Jan-24 03:00N 47°39' W 122°22'0 0.0
2018-Jan-24 02:30N 47°39' W 122°22'0 0.0
2018-Jan-24 02:00N 47°39' W 122°22'0 0.0
2018-Jan-24 01:30N 47°39' W 122°22'0 0.0
2018-Jan-24 01:00N 47°39' W 122°22'0 0.0
2018-Jan-24 00:27N 47°39' W 122°22'0 0.0
2018-Jan-24 00:00N 47°39' W 122°22'0 0.0
2018-Jan-23 23:30N 47°39' W 122°22'0 0.0
2018-Jan-23 22:57N 47°39' W 122°22'0 0.0
2018-Jan-23 22:30N 47°39' W 122°22'0 0.0
2018-Jan-23 22:00N 47°39' W 122°22'0 0.0
2018-Jan-23 21:27N 47°39' W 122°22'0 0.0
2018-Jan-23 21:00N 47°39' W 122°22'0 0.0
2018-Jan-23 20:30N 47°39' W 122°22'0 0.0
2018-Jan-23 20:00N 47°39' W 122°22'0 0.0
2018-Jan-23 19:30N 47°39' W 122°22'0 0.0
2018-Jan-23 19:00N 47°39' W 122°22'0 0.0
2018-Jan-23 18:30N 47°39' W 122°22'0 0.0
2018-Jan-23 18:00N 47°39' W 122°22'0 0.0
2018-Jan-23 17:30N 47°39' W 122°22'0 0.0
2018-Jan-23 17:00N 47°39' W 122°22'0 0.0
2018-Jan-23 16:30N 47°39' W 122°22'0 0.0
2018-Jan-23 16:00N 47°39' W 122°22'0 0.1
2018-Jan-23 15:30N 47°39' W 122°22'0 0.0
2018-Jan-23 15:00N 47°39' W 122°22'0 0.0
2018-Jan-23 14:30N 47°39' W 122°22'0 0.0
2018-Jan-23 13:57N 47°39' W 122°22'0 0.0
2018-Jan-23 13:27N 47°39' W 122°22'0 0.0
2018-Jan-23 13:00N 47°39' W 122°22'0 0.0
2018-Jan-23 12:30N 47°39' W 122°22'0 0.0
2018-Jan-23 12:00N 47°39' W 122°22'0 0.0
2018-Jan-23 11:30N 47°39' W 122°22'0 0.0
2018-Jan-23 11:00N 47°39' W 122°22'0 0.0
2018-Jan-23 10:30N 47°39' W 122°22'0 0.0
2018-Jan-23 10:00N 47°39' W 122°22'0 0.0
2018-Jan-23 09:30N 47°39' W 122°22'0 0.0
2018-Jan-23 09:00N 47°39' W 122°22'0 0.0
2018-Jan-23 08:30N 47°39' W 122°22'0 0.0
2018-Jan-23 08:00N 47°39' W 122°22'0 0.0
2018-Jan-23 07:30N 47°39' W 122°22'0 0.0
2018-Jan-23 07:00N 47°39' W 122°22'0 0.1
2018-Jan-23 06:30N 47°39' W 122°22'0 0.1
2018-Jan-23 06:00N 47°39' W 122°22'0 0.0
2018-Jan-23 05:30N 47°39' W 122°22'0 0.0
2018-Jan-23 05:00N 47°39' W 122°22'0 0.0
2018-Jan-23 04:30N 47°39' W 122°22'0 0.0
2018-Jan-23 04:00N 47°39' W 122°22'0 0.0
2018-Jan-23 03:30N 47°39' W 122°22'0 0.0
2018-Jan-23 03:00N 47°39' W 122°22'0 0.0
2018-Jan-23 02:30N 47°39' W 122°22'0 0.0
2018-Jan-23 02:00N 47°39' W 122°22'0 0.0
2018-Jan-23 01:30N 47°39' W 122°22'0 0.0
2018-Jan-23 01:00N 47°39' W 122°22'0 0.0
2018-Jan-23 00:30N 47°39' W 122°22'0 0.0
2018-Jan-23 00:00N 47°39' W 122°22'0 0.0
2018-Jan-22 23:30N 47°39' W 122°22'0 0.0
2018-Jan-22 23:00N 47°39' W 122°22'0 0.0
2018-Jan-22 22:30N 47°39' W 122°22'0 0.0
2018-Jan-22 22:00N 47°39' W 122°22'0 0.0
2018-Jan-22 21:30N 47°39' W 122°22'0 0.0
2018-Jan-22 21:00N 47°39' W 122°22'0 0.0
2018-Jan-22 20:30N 47°39' W 122°22'0 0.0
2018-Jan-22 20:00N 47°39' W 122°22'0 0.0
2018-Jan-22 19:30N 47°39' W 122°22'0 0.0
2018-Jan-22 19:00N 47°39' W 122°22'0 0.0
2018-Jan-22 18:30N 47°39' W 122°22'0 0.0
2018-Jan-22 18:00N 47°39' W 122°22'0 0.0
2018-Jan-22 17:27N 47°39' W 122°22'0 0.0
2018-Jan-22 17:00N 47°39' W 122°22'0 0.0
2018-Jan-22 16:30N 47°39' W 122°22'0 0.0
2018-Jan-22 16:00N 47°39' W 122°22'0 0.0
2018-Jan-22 15:30N 47°39' W 122°22'0 0.0
2018-Jan-22 15:00N 47°39' W 122°22'0 0.0
2018-Jan-22 14:30N 47°39' W 122°22'0 0.0
2018-Jan-22 14:00N 47°39' W 122°22'0 0.0
2018-Jan-22 13:30N 47°39' W 122°22'0 0.0
2018-Jan-22 12:54N 47°39' W 122°22'0 0.0
2018-Jan-22 12:30N 47°39' W 122°22'0 0.0
2018-Jan-22 12:00N 47°39' W 122°22'0 0.0
2018-Jan-22 11:30N 47°39' W 122°22'0 0.0
2018-Jan-22 11:00N 47°39' W 122°22'0 0.0
2018-Jan-22 10:30N 47°39' W 122°22'0 0.0
2018-Jan-22 10:00N 47°39' W 122°22'0 0.0
2018-Jan-22 09:30N 47°39' W 122°22'0 0.1
2018-Jan-22 09:00N 47°39' W 122°22'0 0.0
2018-Jan-22 08:30N 47°39' W 122°22'0 0.1
2018-Jan-22 08:00N 47°39' W 122°22'0 0.0
2018-Jan-22 07:30N 47°39' W 122°22'0 0.0
2018-Jan-22 07:00N 47°39' W 122°22'0 0.0
2018-Jan-22 06:30N 47°39' W 122°22'0 0.0
2018-Jan-22 06:00N 47°39' W 122°22'0 0.0
2018-Jan-22 05:30N 47°39' W 122°22'0 0.0
2018-Jan-22 05:00N 47°39' W 122°22'0 0.0
2018-Jan-22 04:30N 47°39' W 122°22'0 0.0
2018-Jan-22 04:00N 47°39' W 122°22'0 0.0
2018-Jan-22 03:30N 47°39' W 122°22'0 0.0
2018-Jan-22 03:00N 47°39' W 122°22'0 0.0
2018-Jan-22 02:30N 47°39' W 122°22'0 0.0
2018-Jan-22 02:00N 47°39' W 122°22'0 0.0
2018-Jan-22 01:30N 47°39' W 122°22'0 0.0
2018-Jan-22 00:57N 47°39' W 122°22'0 0.0
2018-Jan-22 00:30N 47°39' W 122°22'0 0.0
2018-Jan-22 00:00N 47°39' W 122°22'0 0.1
2018-Jan-21 23:27N 47°39' W 122°22'0 0.1
2018-Jan-21 23:00N 47°39' W 122°22'0 0.0
2018-Jan-21 22:30N 47°39' W 122°22'0 0.0
2018-Jan-21 22:00N 47°39' W 122°22'0 0.0
2018-Jan-21 21:30N 47°39' W 122°22'0 0.0
2018-Jan-21 21:00N 47°39' W 122°22'  

Dump ship's entire track history